Portada
METAR-TAF:

METAR-TAF

Aeroports :

Dhahran, Aràbia Saudita

latitud: 26-16N, longitud: 050-09E, altitud: 26 m

Observació

L'informe es va fer fa 12 minuts, a les 18:00 UTC
Vent 3 kt amb direcció variable
Temperatura 37°C
Humitat 37%
Pressió 997 hPa
Visibilitat 10 km o més
sense núvols per sota de 1500 mi sense presència de cumulonimbus.

METAR: OEDR 231800Z VRB03KT CAVOK 37/20 Q0997

Hora: 21:12 (18:12 UTC)

Pronòstic

L'informe es va fer fa 7 hores i 32 minuts, a les 10:40 UTC
Pronòstic vàlid del 23 a les 12 UTC al 24 a les 18 UTC
Vent 12 kt del Est/Sud-Est
Visibilitat: 8000 m
Evolucionant progressivament
l' 23 a les 16 UTC al 23 a les 18 UTC
Vent 3 kt amb direcció variable
Temporalment
l' 24 a les 00 UTC al 24 a les 08 UTC
Visibilitat: 5000 m
calitja
Probabilitat 30% :
Temporalment
l' 24 a les 02 UTC al 24 a les 06 UTC
Visibilitat: 3000 m
boirina,

TAF: OEDR 231040Z 2312/2418 12012KT 8000 NSC BECMG 2316/2318 VRB03KT TEMPO 2400/2408 5000 HZ PROB30 TEMPO 2402/2406 3000 BR

Observacions i pronòstics meteorològics de més de 4000 aeroports (METAR i TAF).

Les estacions disponibles són els punts grocs i vermells al mapa.

Posi el ratolí al punt desitjat per veure el nom de l'estació.

Feu clic per veure les observacions i els pronòstics meteorològics.

Per canviar el mapa: feu clic els botons verds amb una creu de color negre per apropar; al botó verd amb un guió per allunyar la imatge; o en les fletxes verdes per a mapes adjacents.


METAR-TAF: